createdAt,value
2019-05-23T00:00:19.443Z,11.29
2019-05-23T00:01:19.462Z,11.31
2019-05-23T00:02:19.414Z,11.32
2019-05-23T00:03:19.412Z,11.32
2019-05-23T00:04:19.402Z,11.32
2019-05-23T00:05:19.394Z,11.32
2019-05-23T00:06:19.409Z,11.32
2019-05-23T00:07:19.363Z,11.34
2019-05-23T00:08:19.352Z,11.34
2019-05-23T00:09:19.342Z,11.36
2019-05-23T00:10:19.332Z,11.38
2019-05-23T00:11:19.370Z,11.36
2019-05-23T00:12:19.303Z,11.35
2019-05-23T00:13:19.304Z,11.35
2019-05-23T00:14:19.293Z,11.35
2019-05-23T00:15:19.283Z,11.35
2019-05-23T00:16:19.303Z,11.35
2019-05-23T00:17:19.265Z,11.35
2019-05-23T00:18:21.215Z,11.35
2019-05-23T00:19:19.233Z,11.35
2019-05-23T00:20:19.223Z,11.35
2019-05-23T00:21:19.254Z,11.34
2019-05-23T00:22:19.205Z,11.32
2019-05-23T00:23:19.214Z,11.32
2019-05-23T00:24:19.185Z,11.31
2019-05-23T00:25:19.164Z,11.31
2019-05-23T00:26:19.192Z,11.31
2019-05-23T00:27:19.143Z,11.31
2019-05-23T00:28:19.132Z,11.31
2019-05-23T00:29:19.124Z,11.31
2019-05-23T00:30:19.149Z,11.29
2019-05-23T00:31:19.109Z,11.29
2019-05-23T00:32:19.104Z,11.29
2019-05-23T00:33:19.112Z,11.29
2019-05-23T00:34:19.066Z,11.27
2019-05-23T00:35:19.071Z,11.25
2019-05-23T00:36:19.053Z,11.25
2019-05-23T00:37:19.034Z,11.21
2019-05-23T00:38:19.091Z,11.20
2019-05-23T00:39:19.027Z,11.19
2019-05-23T00:40:19.007Z,11.17
2019-05-23T00:41:19.019Z,11.16
2019-05-23T00:42:19.019Z,11.14
2019-05-23T00:43:18.973Z,11.14
2019-05-23T00:44:18.994Z,11.11
2019-05-23T00:45:18.953Z,11.10
2019-05-23T00:46:18.944Z,11.09
2019-05-23T00:47:18.953Z,11.07
2019-05-23T00:48:18.915Z,11.07
2019-05-23T00:49:18.934Z,11.07
2019-05-23T00:50:18.903Z,11.03
2019-05-23T00:51:18.881Z,11.03
2019-05-23T00:52:18.904Z,11.03
2019-05-23T00:53:18.862Z,11.01
2019-05-23T00:54:18.852Z,11.02
2019-05-23T00:55:18.835Z,11.02
2019-05-23T00:56:18.847Z,11.01
2019-05-23T00:57:19.015Z,11.02
2019-05-23T00:58:18.845Z,11.01
2019-05-23T00:59:26.929Z,11.01
2019-05-23T01:00:19.784Z,10.99
2019-05-23T01:01:18.775Z,10.99
2019-05-23T01:02:18.753Z,10.98
2019-05-23T01:03:18.895Z,10.98
2019-05-23T01:04:18.773Z,10.96
2019-05-23T01:05:18.765Z,10.98
2019-05-23T01:06:18.748Z,10.96
2019-05-23T01:07:18.725Z,10.96
2019-05-23T01:08:18.705Z,10.98
2019-05-23T01:09:18.684Z,10.99
2019-05-23T01:10:18.884Z,10.99
2019-05-23T01:11:18.721Z,11.01
2019-05-23T01:12:18.667Z,11.02
2019-05-23T01:13:18.645Z,11.01
2019-05-23T01:14:18.658Z,11.03
2019-05-23T01:15:18.624Z,11.03
2019-05-23T01:16:18.665Z,11.02
2019-05-23T01:17:18.595Z,11.01
2019-05-23T01:18:18.584Z,11.01
2019-05-23T01:19:18.616Z,10.99
2019-05-23T01:20:18.640Z,10.98
2019-05-23T01:21:18.620Z,10.99
2019-05-23T01:22:18.554Z,11.01
2019-05-23T01:23:18.534Z,10.99
2019-05-23T01:24:18.553Z,10.99
2019-05-23T01:25:18.544Z,10.98
2019-05-23T01:26:18.503Z,10.96
2019-05-23T01:27:18.486Z,10.96
2019-05-23T01:28:18.475Z,10.94
2019-05-23T01:29:19.341Z,10.92
2019-05-23T01:30:18.458Z,10.94
2019-05-23T01:31:18.455Z,10.91
2019-05-23T01:32:18.442Z,10.91
2019-05-23T01:33:18.457Z,10.89
2019-05-23T01:34:18.418Z,10.89
2019-05-23T01:35:18.433Z,10.88
2019-05-23T01:36:18.400Z,10.89
2019-05-23T01:37:18.374Z,10.89
2019-05-23T01:38:18.399Z,10.88
2019-05-23T01:39:18.383Z,10.88
2019-05-23T01:40:18.372Z,10.86
2019-05-23T01:41:18.334Z,10.84
2019-05-23T01:42:18.347Z,10.83
2019-05-23T01:43:18.422Z,10.83
2019-05-23T01:44:18.307Z,10.83
2019-05-23T01:45:18.328Z,10.83
2019-05-23T01:46:18.312Z,10.84
2019-05-23T01:47:18.297Z,10.84
2019-05-23T01:48:18.263Z,10.84
2019-05-23T01:49:18.332Z,10.81
2019-05-23T01:50:18.277Z,10.80
2019-05-23T01:51:18.224Z,10.80
2019-05-23T01:52:18.211Z,10.78
2019-05-23T01:53:18.233Z,10.78
2019-05-23T01:54:18.196Z,10.77
2019-05-23T01:55:18.183Z,10.77
2019-05-23T01:56:18.207Z,10.77
2019-05-23T01:57:18.158Z,10.76
2019-05-23T01:58:18.183Z,10.73
2019-05-23T01:59:18.163Z,10.73
2019-05-23T02:00:18.142Z,10.71
2019-05-23T02:01:18.121Z,10.70
2019-05-23T02:02:18.141Z,10.70
2019-05-23T02:03:18.113Z,10.68
2019-05-23T02:04:18.089Z,10.70
2019-05-23T02:05:18.083Z,10.70
2019-05-23T02:06:18.074Z,10.71
2019-05-23T02:07:18.062Z,10.70
2019-05-23T02:08:18.037Z,10.70
2019-05-23T02:09:18.032Z,10.70
2019-05-23T02:10:18.072Z,10.70
2019-05-23T02:11:18.003Z,10.70
2019-05-23T02:12:18.030Z,10.70
2019-05-23T02:13:17.975Z,10.71
2019-05-23T02:14:17.974Z,10.71
2019-05-23T02:15:17.984Z,10.71
2019-05-23T02:16:17.950Z,10.73
2019-05-23T02:17:17.937Z,10.76
2019-05-23T02:18:17.928Z,10.74
2019-05-23T02:19:17.944Z,10.77
2019-05-23T02:20:17.904Z,10.78
2019-05-23T02:21:17.901Z,10.78
2019-05-23T02:22:17.884Z,10.80
2019-05-23T02:23:17.904Z,10.78
2019-05-23T02:24:17.865Z,10.80
2019-05-23T02:25:17.852Z,10.80
2019-05-23T02:26:17.908Z,10.78
2019-05-23T02:27:17.826Z,10.78
2019-05-23T02:28:17.854Z,10.78
2019-05-23T02:29:17.807Z,10.77
2019-05-23T02:30:33.107Z,10.77
2019-05-23T02:31:18.786Z,10.76
2019-05-23T02:32:17.771Z,10.77
2019-05-23T02:33:17.795Z,10.76
2019-05-23T02:34:17.757Z,10.76
2019-05-23T02:35:17.745Z,10.74
2019-05-23T02:36:17.737Z,10.74
2019-05-23T02:37:17.744Z,10.76
2019-05-23T02:38:17.737Z,10.74
2019-05-23T02:39:17.696Z,10.74
2019-05-23T02:40:17.687Z,10.73
2019-05-23T02:41:17.675Z,10.73
2019-05-23T02:42:17.664Z,10.73
2019-05-23T02:43:17.684Z,10.71
2019-05-23T02:44:17.649Z,10.73
2019-05-23T02:45:17.637Z,10.74
2019-05-23T02:46:17.618Z,10.74
2019-05-23T02:47:17.647Z,10.74
2019-05-23T02:48:17.606Z,10.76
2019-05-23T02:49:17.596Z,10.76
2019-05-23T02:50:17.631Z,10.76
2019-05-23T02:51:17.564Z,10.76
2019-05-23T02:52:17.555Z,10.76
2019-05-23T02:53:17.574Z,10.77
2019-05-23T02:54:17.543Z,10.77
2019-05-23T02:55:17.555Z,10.77
2019-05-23T02:56:17.519Z,10.77
2019-05-23T02:57:17.500Z,10.77
2019-05-23T02:58:17.527Z,10.76
2019-05-23T02:59:17.486Z,10.76
2019-05-23T03:00:17.467Z,10.76
2019-05-23T03:01:17.459Z,10.74
2019-05-23T03:02:17.446Z,10.74
2019-05-23T03:03:17.476Z,10.73
2019-05-23T03:04:17.426Z,10.71
2019-05-23T03:05:17.416Z,10.70
2019-05-23T03:06:17.400Z,10.70
2019-05-23T03:07:17.391Z,10.68
2019-05-23T03:08:17.415Z,10.68
2019-05-23T03:09:17.371Z,10.68
2019-05-23T03:10:17.385Z,10.70
2019-05-23T03:11:17.348Z,10.70
2019-05-23T03:12:17.347Z,10.68
2019-05-23T03:13:17.329Z,10.70
2019-05-23T03:14:17.314Z,10.70
2019-05-23T03:15:17.336Z,10.70
2019-05-23T03:16:17.293Z,10.68
2019-05-23T03:17:17.283Z,10.70
2019-05-23T03:18:17.272Z,10.68
2019-05-23T03:19:17.263Z,10.70
2019-05-23T03:20:17.293Z,10.68
2019-05-23T03:21:17.235Z,10.68
2019-05-23T03:22:17.262Z,10.66
2019-05-23T03:23:17.216Z,10.65
2019-05-23T03:24:17.206Z,10.63
2019-05-23T03:25:17.220Z,10.62
2019-05-23T03:26:17.188Z,10.62
2019-05-23T03:27:17.244Z,10.60
2019-05-23T03:28:17.157Z,10.60
2019-05-23T03:29:17.151Z,10.59
2019-05-23T03:30:17.157Z,10.58
2019-05-23T03:31:33.229Z,10.56
2019-05-23T03:32:18.145Z,10.56
2019-05-23T03:33:17.106Z,10.56
2019-05-23T03:34:17.095Z,10.58
2019-05-23T03:35:17.085Z,10.55
2019-05-23T03:36:17.076Z,10.55
2019-05-23T03:37:17.098Z,10.53
2019-05-23T03:38:17.068Z,10.55
2019-05-23T03:39:17.063Z,10.53
2019-05-23T03:40:17.026Z,10.55
2019-05-23T03:41:17.030Z,10.55
2019-05-23T03:42:17.045Z,10.53
2019-05-23T03:43:17.025Z,10.55
2019-05-23T03:44:17.014Z,10.53
2019-05-23T03:45:16.975Z,10.53
2019-05-23T03:46:16.962Z,10.55
2019-05-23T03:47:16.954Z,10.56
2019-05-23T03:48:16.975Z,10.56
2019-05-23T03:49:16.934Z,10.53
2019-05-23T03:50:16.924Z,10.52
2019-05-23T03:51:16.916Z,10.52
2019-05-23T03:52:16.906Z,10.47
2019-05-23T03:53:16.974Z,10.47
2019-05-23T03:54:16.872Z,10.46
2019-05-23T03:55:16.865Z,10.44
2019-05-23T03:56:16.885Z,10.43
2019-05-23T03:57:16.855Z,10.43
2019-05-23T03:58:16.833Z,10.43
2019-05-23T03:59:16.827Z,10.43
2019-05-23T04:00:16.834Z,10.44
2019-05-23T04:01:16.821Z,10.42
2019-05-23T04:02:16.785Z,10.42
2019-05-23T04:03:16.883Z,10.42
2019-05-23T04:04:16.766Z,10.42
2019-05-23T04:05:16.782Z,10.39
2019-05-23T04:06:16.745Z,10.39
2019-05-23T04:07:17.722Z,10.39
2019-05-23T04:08:16.729Z,10.36
2019-05-23T04:09:16.728Z,10.36
2019-05-23T04:10:16.738Z,10.36
2019-05-23T04:11:16.685Z,10.37
2019-05-23T04:12:16.678Z,10.36
2019-05-23T04:13:16.709Z,10.39
2019-05-23T04:14:16.646Z,10.39
2019-05-23T04:15:16.674Z,10.40
2019-05-23T04:16:16.650Z,10.39
2019-05-23T04:17:16.634Z,10.37
2019-05-23T04:18:16.604Z,10.39
2019-05-23T04:19:16.636Z,10.37
2019-05-23T04:20:16.596Z,10.39
2019-05-23T04:21:16.586Z,10.37
2019-05-23T04:22:16.566Z,10.39
2019-05-23T04:23:16.575Z,10.37
2019-05-23T04:24:16.582Z,10.37
2019-05-23T04:25:16.562Z,10.37
2019-05-23T04:26:16.525Z,10.40
2019-05-23T04:27:16.513Z,10.37
2019-05-23T04:28:16.538Z,10.39
2019-05-23T04:29:16.485Z,10.37
2019-05-23T04:30:16.485Z,10.42
2019-05-23T04:31:16.493Z,10.42
2019-05-23T04:32:16.453Z,10.42
2019-05-23T04:33:16.495Z,10.42
2019-05-23T04:34:16.455Z,10.42
2019-05-23T04:35:16.425Z,10.43
2019-05-23T04:36:16.414Z,10.44
2019-05-23T04:37:16.404Z,10.44
2019-05-23T04:38:16.425Z,10.46
2019-05-23T04:39:16.417Z,10.51
2019-05-23T04:40:16.377Z,10.47
2019-05-23T04:41:16.356Z,10.53
2019-05-23T04:42:16.346Z,10.55
2019-05-23T04:43:16.336Z,10.58
2019-05-23T04:44:16.378Z,10.59
2019-05-23T04:45:16.316Z,10.60
2019-05-23T04:46:16.319Z,10.63
2019-05-23T04:47:16.285Z,10.66
2019-05-23T04:48:16.291Z,10.70
2019-05-23T04:49:16.335Z,10.73
2019-05-23T04:50:16.266Z,10.77
2019-05-23T04:51:16.257Z,10.81
2019-05-23T04:52:16.244Z,10.86
2019-05-23T04:53:16.251Z,10.92
2019-05-23T04:54:16.245Z,10.96
2019-05-23T04:55:16.213Z,11.01
2019-05-23T04:56:16.225Z,11.03
2019-05-23T04:57:16.187Z,11.09
2019-05-23T04:58:16.208Z,11.14
2019-05-23T04:59:16.205Z,11.20
2019-05-23T05:00:16.157Z,11.29
2019-05-23T05:01:16.159Z,11.35
2019-05-23T05:02:25.448Z,11.43
2019-05-23T05:03:18.598Z,11.49
2019-05-23T05:04:16.152Z,11.56
2019-05-23T05:05:16.096Z,11.64
2019-05-23T05:06:16.085Z,11.70
2019-05-23T05:07:16.081Z,11.74
2019-05-23T05:08:16.366Z,11.80
2019-05-23T05:09:16.083Z,11.86
2019-05-23T05:10:16.045Z,11.94
2019-05-23T05:11:16.026Z,11.97
2019-05-23T05:12:16.088Z,11.99
2019-05-23T05:13:16.008Z,12.02
2019-05-23T05:14:16.051Z,12.06
2019-05-23T05:15:15.993Z,12.11
2019-05-23T05:16:15.975Z,12.19
2019-05-23T05:17:16.037Z,12.23
2019-05-23T05:18:15.975Z,12.26
2019-05-23T05:19:15.993Z,12.30
2019-05-23T05:20:15.969Z,12.34
2019-05-23T05:21:15.927Z,12.38
2019-05-23T05:22:15.905Z,12.38
2019-05-23T05:23:15.896Z,12.42
2019-05-23T05:24:15.936Z,12.46
2019-05-23T05:25:15.941Z,12.51
2019-05-23T05:26:15.883Z,12.59
2019-05-23T05:27:15.924Z,12.62
2019-05-23T05:28:15.834Z,12.66
2019-05-23T05:29:15.836Z,12.67
2019-05-23T05:30:15.845Z,12.70
2019-05-23T05:31:15.834Z,12.78
2019-05-23T05:32:15.824Z,12.87
2019-05-23T05:33:15.797Z,12.99
2019-05-23T05:34:15.814Z,13.06
2019-05-23T05:35:15.790Z,13.11
2019-05-23T05:36:15.765Z,13.17
2019-05-23T05:37:15.778Z,13.22
2019-05-23T05:38:15.736Z,13.25
2019-05-23T05:39:15.728Z,13.29
2019-05-23T05:40:15.745Z,13.32
2019-05-23T05:41:15.745Z,13.36
2019-05-23T05:42:15.717Z,13.46
2019-05-23T05:43:15.731Z,13.56
2019-05-23T05:44:15.665Z,13.65
2019-05-23T05:45:15.740Z,13.74
2019-05-23T05:46:15.636Z,13.81
2019-05-23T05:47:15.715Z,13.94
2019-05-23T05:48:15.636Z,14.01
2019-05-23T05:49:15.620Z,14.06
2019-05-23T05:50:15.606Z,14.12
2019-05-23T05:51:15.604Z,14.20
2019-05-23T05:52:15.615Z,14.29
2019-05-23T05:53:15.572Z,14.42
2019-05-23T05:54:15.564Z,14.62
2019-05-23T05:55:15.594Z,14.87
2019-05-23T05:56:15.578Z,15.12
2019-05-23T05:57:15.527Z,15.38
2019-05-23T05:58:15.515Z,15.63
2019-05-23T05:59:15.515Z,15.79
2019-05-23T06:00:15.536Z,15.93
2019-05-23T06:01:31.139Z,16.16
2019-05-23T06:02:16.504Z,16.42
2019-05-23T06:03:15.508Z,16.58
2019-05-23T06:04:15.485Z,16.67
2019-05-23T06:05:15.484Z,16.85
2019-05-23T06:06:15.462Z,17.06
2019-05-23T06:07:15.473Z,17.25
2019-05-23T06:08:15.420Z,17.41
2019-05-23T06:09:15.409Z,17.54
2019-05-23T06:10:15.448Z,17.71
2019-05-23T06:11:15.410Z,17.97
2019-05-23T06:12:15.371Z,18.18
2019-05-23T06:13:15.366Z,18.37
2019-05-23T06:14:15.344Z,18.50
2019-05-23T06:15:15.367Z,18.59
2019-05-23T06:16:15.316Z,18.77
2019-05-23T06:17:15.307Z,18.86
2019-05-23T06:18:15.291Z,19.05
2019-05-23T06:19:15.319Z,19.15
2019-05-23T06:20:15.977Z,19.29
2019-05-23T06:21:15.274Z,19.39
2019-05-23T06:22:15.257Z,19.43
2019-05-23T06:23:15.245Z,19.48
2019-05-23T06:24:15.248Z,19.50
2019-05-23T06:25:15.256Z,19.63
2019-05-23T06:26:15.237Z,19.63
2019-05-23T06:27:15.193Z,19.70
2019-05-23T06:28:15.187Z,19.76
2019-05-23T06:29:15.168Z,19.84
2019-05-23T06:30:15.167Z,20.02
2019-05-23T06:31:15.187Z,20.20
2019-05-23T06:32:15.156Z,20.41
2019-05-23T06:33:23.336Z,20.50
2019-05-23T06:34:16.115Z,20.59
2019-05-23T06:35:15.099Z,20.68
2019-05-23T06:36:15.167Z,20.72
2019-05-23T06:37:15.082Z,20.76
2019-05-23T06:38:15.071Z,20.81
2019-05-23T06:39:15.136Z,20.68
2019-05-23T06:40:15.068Z,20.72
2019-05-23T06:41:15.097Z,20.71
2019-05-23T06:42:15.057Z,20.77
2019-05-23T06:43:15.020Z,20.72
2019-05-23T06:44:15.012Z,20.43
2019-05-23T06:45:15.091Z,19.60
2019-05-23T06:46:15.024Z,18.99
2019-05-23T06:47:14.993Z,19.14
2019-05-23T06:48:14.980Z,19.28
2019-05-23T06:49:15.012Z,19.33
2019-05-23T06:50:14.952Z,19.29
2019-05-23T06:51:14.931Z,19.46
2019-05-23T06:52:14.927Z,19.54
2019-05-23T06:53:14.967Z,19.54
2019-05-23T06:54:14.932Z,19.76
2019-05-23T06:55:14.882Z,19.86
2019-05-23T06:56:14.880Z,20.03
2019-05-23T06:57:14.871Z,20.15
2019-05-23T06:58:14.872Z,20.18
2019-05-23T06:59:14.842Z,20.28
2019-05-23T07:00:14.843Z,19.93
2019-05-23T07:01:14.824Z,19.31
2019-05-23T07:02:14.833Z,18.52
2019-05-23T07:03:14.854Z,18.09
2019-05-23T07:04:14.799Z,17.78
2019-05-23T07:05:14.782Z,17.50
2019-05-23T07:06:14.773Z,17.41
2019-05-23T07:07:14.806Z,17.53
2019-05-23T07:08:14.839Z,18.03
2019-05-23T07:09:14.752Z,18.55
2019-05-23T07:10:14.764Z,18.99
2019-05-23T07:11:14.863Z,19.25
2019-05-23T07:12:14.704Z,18.91
2019-05-23T07:13:14.683Z,18.54
2019-05-23T07:14:14.686Z,18.79
2019-05-23T07:15:14.737Z,19.21
2019-05-23T07:16:14.671Z,19.69
2019-05-23T07:17:14.653Z,20.20
2019-05-23T07:18:14.634Z,20.59
2019-05-23T07:19:14.623Z,20.65
2019-05-23T07:20:14.653Z,20.80
2019-05-23T07:21:14.605Z,20.96
2019-05-23T07:22:18.071Z,20.23
2019-05-23T07:23:14.577Z,19.28
2019-05-23T07:24:14.591Z,18.47
2019-05-23T07:25:14.615Z,18.06
2019-05-23T07:26:14.545Z,17.84
2019-05-23T07:27:14.569Z,17.51
2019-05-23T07:28:14.537Z,17.38
2019-05-23T07:29:14.547Z,17.69
2019-05-23T07:30:14.495Z,18.12
2019-05-23T07:31:14.526Z,18.46
2019-05-23T07:32:14.482Z,18.76
2019-05-23T07:33:14.466Z,18.98
2019-05-23T07:34:14.469Z,19.18
2019-05-23T07:35:14.497Z,19.43
2019-05-23T07:36:14.448Z,19.47
2019-05-23T07:37:14.439Z,19.31
2019-05-23T07:38:14.435Z,19.47
2019-05-23T07:39:14.406Z,19.69
2019-05-23T07:40:14.418Z,19.87
2019-05-23T07:41:14.450Z,20.08
2019-05-23T07:42:14.381Z,20.18
2019-05-23T07:43:14.357Z,20.21
2019-05-23T07:44:14.446Z,20.02
2019-05-23T07:45:14.341Z,19.73
2019-05-23T07:46:14.357Z,19.50
2019-05-23T07:47:14.321Z,18.44
2019-05-23T07:48:14.310Z,18.03
2019-05-23T07:49:14.310Z,17.50
2019-05-23T07:50:14.285Z,17.70
2019-05-23T07:51:14.311Z,17.71
2019-05-23T07:52:14.273Z,18.09
2019-05-23T07:53:14.249Z,18.50
2019-05-23T07:54:14.585Z,18.67
2019-05-23T07:55:14.232Z,18.95
2019-05-23T07:56:14.225Z,19.18
2019-05-23T07:57:14.227Z,19.35
2019-05-23T07:58:14.440Z,19.50
2019-05-23T07:59:14.190Z,19.63
2019-05-23T08:00:14.177Z,19.88
2019-05-23T08:01:14.313Z,19.75
2019-05-23T08:02:14.174Z,19.69
2019-05-23T08:03:14.171Z,19.66
2019-05-23T08:04:20.978Z,19.86
2019-05-23T08:05:15.120Z,19.60
2019-05-23T08:06:14.201Z,19.33
2019-05-23T08:07:14.131Z,19.06
2019-05-23T08:08:14.109Z,18.99
2019-05-23T08:09:14.071Z,18.99
2019-05-23T08:10:14.106Z,18.99
2019-05-23T08:11:14.102Z,18.73
2019-05-23T08:12:14.041Z,18.37
2019-05-23T08:13:14.061Z,18.10
2019-05-23T08:14:14.023Z,18.00
2019-05-23T08:15:14.011Z,18.02
2019-05-23T08:16:14.114Z,17.67
2019-05-23T08:17:14.011Z,17.74
2019-05-23T08:18:14.017Z,17.89
2019-05-23T08:19:19.370Z,18.25
2019-05-23T08:20:14.952Z,18.49
2019-05-23T08:21:13.962Z,18.55
2019-05-23T08:22:13.983Z,19.13
2019-05-23T08:23:13.954Z,19.61
2019-05-23T08:24:13.912Z,19.98
2019-05-23T08:25:13.904Z,20.28
2019-05-23T08:26:13.893Z,20.30
2019-05-23T08:27:13.926Z,19.93
2019-05-23T08:28:13.864Z,19.78
2019-05-23T08:29:25.437Z,19.58
2019-05-23T08:30:14.848Z,19.46
2019-05-23T08:31:13.842Z,19.36
2019-05-23T08:32:13.847Z,19.53
2019-05-23T08:33:14.097Z,19.55
2019-05-23T08:34:13.804Z,19.65
2019-05-23T08:35:17.843Z,19.70
2019-05-23T08:36:13.783Z,19.69
2019-05-23T08:37:13.924Z,19.65
2019-05-23T08:38:13.760Z,19.60
2019-05-23T08:39:13.758Z,19.58
2019-05-23T08:40:13.736Z,19.54
2019-05-23T08:41:13.819Z,19.39
2019-05-23T08:42:13.768Z,19.31
2019-05-23T08:43:13.944Z,19.31
2019-05-23T08:44:13.689Z,19.10
2019-05-23T08:45:13.684Z,18.95
2019-05-23T08:46:13.687Z,18.74
2019-05-23T08:47:13.695Z,18.61
2019-05-23T08:48:13.649Z,18.61
2019-05-23T08:49:13.675Z,18.58
2019-05-23T08:50:13.626Z,18.61
2019-05-23T08:51:13.621Z,18.67
2019-05-23T08:52:13.608Z,18.67
2019-05-23T08:53:13.631Z,18.87
2019-05-23T08:54:13.681Z,18.94
2019-05-23T08:55:13.577Z,19.05
2019-05-23T08:56:18.855Z,18.98
2019-05-23T08:57:14.548Z,18.74
2019-05-23T08:58:13.584Z,18.46
2019-05-23T08:59:13.527Z,18.54
2019-05-23T09:00:13.519Z,18.91
2019-05-23T09:01:13.519Z,19.20
2019-05-23T09:02:13.498Z,19.28
2019-05-23T09:03:13.528Z,19.25
2019-05-23T09:04:13.491Z,19.47
2019-05-23T09:05:13.532Z,19.55
2019-05-23T09:06:13.451Z,19.73
2019-05-23T09:07:13.748Z,19.75
2019-05-23T09:08:16.781Z,20.02
2019-05-23T09:09:28.305Z,20.05
2019-05-23T09:10:14.431Z,19.95
2019-05-23T09:11:13.406Z,19.97
2019-05-23T09:12:13.423Z,20.06
2019-05-23T09:13:13.394Z,20.09
2019-05-23T09:14:13.390Z,20.05
2019-05-23T09:15:13.351Z,19.91
2019-05-23T09:16:13.343Z,19.76
2019-05-23T09:17:13.375Z,19.73
2019-05-23T09:18:13.326Z,19.72
2019-05-23T09:19:13.311Z,19.65
2019-05-23T09:20:13.378Z,19.60
2019-05-23T09:21:13.325Z,19.63
2019-05-23T09:22:13.296Z,20.42
2019-05-23T09:23:13.262Z,20.59
2019-05-23T09:24:13.250Z,21.66
2019-05-23T09:25:13.255Z,22.56
2019-05-23T09:26:13.272Z,23.26
2019-05-23T09:27:13.315Z,24.01
2019-05-23T09:28:13.211Z,24.63
2019-05-23T09:29:13.248Z,25.25
2019-05-23T09:30:13.191Z,25.75
2019-05-23T09:31:13.195Z,26.04
2019-05-23T09:32:13.201Z,26.49
2019-05-23T09:33:13.156Z,26.81
2019-05-23T09:34:13.191Z,26.57
2019-05-23T09:35:20.916Z,26.27
2019-05-23T09:36:14.122Z,26.50
2019-05-23T09:37:13.115Z,26.79
2019-05-23T09:38:13.094Z,26.92
2019-05-23T09:39:13.125Z,27.19
2019-05-23T09:40:13.083Z,26.39
2019-05-23T09:41:13.074Z,24.32
2019-05-23T09:42:13.054Z,22.50
2019-05-23T09:43:13.054Z,21.32
2019-05-23T09:44:13.077Z,20.58
2019-05-23T09:45:13.026Z,20.24
2019-05-23T09:46:13.012Z,19.80
2019-05-23T09:47:13.012Z,19.46
2019-05-23T09:48:13.024Z,19.38
2019-05-23T09:49:13.013Z,19.46
2019-05-23T09:50:12.978Z,19.50
2019-05-23T09:51:12.963Z,19.50
2019-05-23T09:52:13.082Z,19.48
2019-05-23T09:53:12.965Z,19.53
2019-05-23T09:54:12.930Z,19.50
2019-05-23T09:55:12.922Z,19.51
2019-05-23T09:56:12.931Z,19.53
2019-05-23T09:57:12.923Z,19.38
2019-05-23T09:58:12.940Z,19.25
2019-05-23T09:59:12.873Z,19.21
2019-05-23T10:00:12.858Z,19.14
2019-05-23T10:01:12.853Z,19.08
2019-05-23T10:02:12.892Z,18.95
2019-05-23T10:03:12.829Z,19.06
2019-05-23T10:04:12.822Z,19.13
2019-05-23T10:05:12.806Z,19.21
2019-05-23T10:06:12.797Z,19.25
2019-05-23T10:07:12.818Z,19.65
2019-05-23T10:08:12.768Z,20.02
2019-05-23T10:09:12.760Z,20.39
2019-05-23T10:10:12.748Z,20.69
2019-05-23T10:11:12.768Z,20.90
2019-05-23T10:12:12.754Z,21.09
2019-05-23T10:13:12.720Z,21.26
2019-05-23T10:14:12.709Z,21.20
2019-05-23T10:15:12.730Z,21.08
2019-05-23T10:16:12.735Z,21.02
2019-05-23T10:17:12.674Z,20.95
2019-05-23T10:18:12.669Z,20.98
2019-05-23T10:19:12.655Z,20.86
2019-05-23T10:20:12.648Z,20.66
2019-05-23T10:21:13.289Z,20.65
2019-05-23T10:22:12.629Z,20.62
2019-05-23T10:23:12.615Z,20.28
2019-05-23T10:24:12.600Z,19.97
2019-05-23T10:25:12.620Z,19.84
2019-05-23T10:26:12.627Z,20.02
2019-05-23T10:27:12.570Z,20.35
2019-05-23T10:28:12.564Z,20.71
2019-05-23T10:29:12.552Z,20.79
2019-05-23T10:30:12.549Z,21.04
2019-05-23T10:31:12.593Z,21.29
2019-05-23T10:32:12.511Z,21.57
2019-05-23T10:33:13.319Z,21.61
2019-05-23T10:34:12.491Z,21.71
2019-05-23T10:35:12.493Z,21.74
2019-05-23T10:36:12.504Z,21.83
2019-05-23T10:37:12.452Z,21.75
2019-05-23T10:38:12.463Z,21.92
2019-05-23T10:39:12.433Z,21.95
2019-05-23T10:40:12.462Z,21.44
2019-05-23T10:41:12.413Z,20.51
2019-05-23T10:42:12.407Z,20.02
2019-05-23T10:43:12.394Z,19.94
2019-05-23T10:44:12.409Z,19.97
2019-05-23T10:45:12.403Z,19.95
2019-05-23T10:46:12.358Z,19.98
2019-05-23T10:47:12.396Z,19.86
2019-05-23T10:48:12.334Z,19.83
2019-05-23T10:49:12.323Z,19.98
2019-05-23T10:50:12.349Z,20.24
2019-05-23T10:51:12.315Z,20.27
2019-05-23T10:52:12.337Z,20.38
2019-05-23T10:53:12.286Z,19.97
2019-05-23T10:54:12.276Z,19.40
2019-05-23T10:55:12.263Z,19.17
2019-05-23T10:56:12.259Z,19.02
2019-05-23T10:57:12.289Z,19.06
2019-05-23T10:58:12.252Z,19.24
2019-05-23T10:59:12.213Z,19.48
2019-05-23T11:00:12.207Z,19.75
2019-05-23T11:01:12.229Z,20.05
2019-05-23T11:02:12.226Z,20.35
2019-05-23T11:03:12.220Z,20.62
2019-05-23T11:04:12.168Z,20.59
2019-05-23T11:05:14.083Z,20.77
2019-05-23T11:06:16.010Z,20.91
2019-05-23T11:07:12.133Z,21.05
2019-05-23T11:08:12.160Z,21.17
2019-05-23T11:09:12.107Z,21.29
2019-05-23T11:10:12.093Z,21.53
2019-05-23T11:11:14.679Z,21.82
2019-05-23T11:12:12.119Z,22.07
2019-05-23T11:13:12.066Z,22.29
2019-05-23T11:14:12.062Z,22.02
2019-05-23T11:15:12.090Z,21.91
2019-05-23T11:16:12.033Z,21.99
2019-05-23T11:17:12.060Z,21.64
2019-05-23T11:18:12.008Z,21.61
2019-05-23T11:19:11.998Z,21.76
2019-05-23T11:20:12.043Z,21.83
2019-05-23T11:21:12.024Z,21.64
2019-05-23T11:22:11.968Z,21.66
2019-05-23T11:23:12.064Z,21.66
2019-05-23T11:24:11.939Z,21.48
2019-05-23T11:25:11.957Z,21.82
2019-05-23T11:26:11.920Z,22.07
2019-05-23T11:27:11.920Z,22.10
2019-05-23T11:28:11.930Z,22.01
2019-05-23T11:29:11.891Z,21.91
2019-05-23T11:30:11.879Z,21.85
2019-05-23T11:31:11.913Z,21.90
2019-05-23T11:32:11.862Z,21.95
2019-05-23T11:33:11.841Z,22.19
2019-05-23T11:34:11.834Z,22.31
2019-05-23T11:35:11.837Z,22.67
2019-05-23T11:36:11.860Z,23.04
2019-05-23T11:37:11.832Z,23.31
2019-05-23T11:38:11.845Z,23.49
2019-05-23T11:39:11.789Z,23.62
2019-05-23T11:40:11.803Z,23.57
2019-05-23T11:41:11.834Z,23.60
2019-05-23T11:42:11.758Z,23.64
2019-05-23T11:43:11.734Z,23.60
2019-05-23T11:44:11.723Z,23.24
2019-05-23T11:45:11.714Z,22.96
2019-05-23T11:46:11.745Z,23.11
2019-05-23T11:47:11.694Z,23.24
2019-05-23T11:48:11.730Z,23.11
2019-05-23T11:49:11.998Z,23.15
2019-05-23T11:50:11.739Z,23.09
2019-05-23T11:51:11.687Z,22.97
2019-05-23T11:52:11.688Z,22.72
2019-05-23T11:53:11.633Z,22.60
2019-05-23T11:54:11.622Z,22.43
2019-05-23T11:55:11.609Z,21.29
2019-05-23T11:56:11.638Z,20.39
2019-05-23T11:57:11.596Z,20.08
2019-05-23T11:58:11.623Z,20.13
2019-05-23T11:59:11.603Z,20.35
2019-05-23T12:00:11.571Z,20.65
2019-05-23T12:01:19.879Z,20.84
2019-05-23T12:02:12.533Z,20.87
2019-05-23T12:03:11.629Z,20.80
2019-05-23T12:04:11.876Z,20.79
2019-05-23T12:05:11.595Z,20.80
2019-05-23T12:06:11.519Z,20.86
2019-05-23T12:07:11.501Z,20.90
2019-05-23T12:08:11.511Z,20.95
2019-05-23T12:09:11.488Z,21.02
2019-05-23T12:10:11.453Z,21.04
2019-05-23T12:11:11.440Z,20.77
2019-05-23T12:12:11.494Z,20.68
2019-05-23T12:13:11.422Z,20.79
2019-05-23T12:14:11.416Z,21.01
2019-05-23T12:15:11.419Z,21.17
2019-05-23T12:16:11.379Z,21.35
2019-05-23T12:17:11.367Z,21.46
2019-05-23T12:18:11.389Z,21.44
2019-05-23T12:19:11.361Z,21.38
2019-05-23T12:20:11.725Z,21.20
2019-05-23T12:21:11.327Z,21.20
2019-05-23T12:22:11.370Z,21.14
2019-05-23T12:23:11.411Z,21.11
2019-05-23T12:24:11.289Z,21.06
2019-05-23T12:25:22.044Z,20.95
2019-05-23T12:26:12.278Z,20.81
2019-05-23T12:27:11.271Z,20.65
2019-05-23T12:28:11.313Z,20.50
2019-05-23T12:29:11.251Z,20.47
2019-05-23T12:30:11.269Z,20.54
2019-05-23T12:31:11.221Z,20.64
2019-05-23T12:32:11.224Z,20.51
2019-05-23T12:33:11.250Z,20.41
2019-05-23T12:34:11.203Z,20.38
2019-05-23T12:35:12.117Z,20.38
2019-05-23T12:36:11.152Z,20.38
2019-05-23T12:37:19.227Z,20.30
2019-05-23T12:38:12.162Z,20.08
2019-05-23T12:39:11.134Z,19.97
2019-05-23T12:40:11.138Z,19.97
2019-05-23T12:41:11.113Z,19.93
2019-05-23T12:42:11.223Z,19.73
2019-05-23T12:43:11.206Z,19.72
2019-05-23T12:44:11.075Z,19.80
2019-05-23T12:45:11.065Z,19.94
2019-05-23T12:46:11.103Z,20.00
2019-05-23T12:47:11.097Z,20.09
2019-05-23T12:48:11.036Z,20.03
2019-05-23T12:49:11.061Z,19.95
2019-05-23T12:50:11.085Z,19.97
2019-05-23T12:51:11.032Z,19.90
2019-05-23T12:52:11.045Z,19.83